sensor_id;sensor_type;location;lat;lon;timestamp;pressure;altitude;pressure_sealevel;temperature;humidity
28432;BME280;15664;51.302;7.744;2022-12-18T00:02:03;84134.81;;;-146.98;72.90
28432;BME280;15664;51.302;7.744;2022-12-18T00:04:29;84147.03;;;-146.98;72.65
28432;BME280;15664;51.302;7.744;2022-12-18T00:06:54;84142.97;;;-146.98;72.35
28432;BME280;15664;51.302;7.744;2022-12-18T00:09:20;84153.16;;;-146.98;72.08
28432;BME280;15664;51.302;7.744;2022-12-18T00:11:46;84140.91;;;-146.98;72.04
28432;BME280;15664;51.302;7.744;2022-12-18T00:14:12;84153.16;;;-146.98;71.98
28432;BME280;15664;51.302;7.744;2022-12-18T00:16:39;84189.81;;;-146.98;72.04
28432;BME280;15664;51.302;7.744;2022-12-18T00:19:05;84155.19;;;-146.98;72.00
28432;BME280;15664;51.302;7.744;2022-12-18T00:21:31;84159.25;;;-146.98;72.07
28432;BME280;15664;51.302;7.744;2022-12-18T00:23:58;84138.88;;;-146.98;72.05
28432;BME280;15664;51.302;7.744;2022-12-18T00:26:29;84138.88;;;-146.98;71.61
28432;BME280;15664;51.302;7.744;2022-12-18T00:29:00;84140.91;;;-146.98;71.57
28432;BME280;15664;51.302;7.744;2022-12-18T00:31:26;84212.22;;;-146.98;71.79
28432;BME280;15664;51.302;7.744;2022-12-18T00:33:54;84163.31;;;-146.98;72.01
28432;BME280;15664;51.302;7.744;2022-12-18T00:36:23;84177.59;;;-146.98;72.13
28432;BME280;15664;51.302;7.744;2022-12-18T00:38:51;84151.09;;;-146.98;71.95
28432;BME280;15664;51.302;7.744;2022-12-18T00:41:17;84155.19;;;-146.98;71.72
28432;BME280;15664;51.302;7.744;2022-12-18T00:44:05;84173.50;;;-146.98;71.53
28432;BME280;15664;51.302;7.744;2022-12-18T00:46:31;84147.03;;;-146.98;71.40
28432;BME280;15664;51.302;7.744;2022-12-18T00:48:56;84138.88;;;-146.98;71.35
28432;BME280;15664;51.302;7.744;2022-12-18T00:51:22;84145.00;;;-146.98;71.17
28432;BME280;15664;51.302;7.744;2022-12-18T00:53:48;84122.59;;;-146.98;71.28
28432;BME280;15664;51.302;7.744;2022-12-18T00:56:13;84136.84;;;-146.98;71.40
28432;BME280;15664;51.302;7.744;2022-12-18T00:58:38;84130.75;;;-146.98;71.51
28432;BME280;15664;51.302;7.744;2022-12-18T01:01:04;84171.47;;;-146.98;71.72
28432;BME280;15664;51.302;7.744;2022-12-18T01:03:32;84140.91;;;-146.98;71.77
28432;BME280;15664;51.302;7.744;2022-12-18T01:05:58;84110.38;;;-146.98;71.81
28432;BME280;15664;51.302;7.744;2022-12-18T01:08:23;84083.88;;;-146.98;71.60
28432;BME280;15664;51.302;7.744;2022-12-18T01:10:49;84114.44;;;-146.98;71.57
28432;BME280;15664;51.302;7.744;2022-12-18T01:13:14;84167.41;;;-146.98;71.53
28432;BME280;15664;51.302;7.744;2022-12-18T01:15:40;84104.25;;;-146.98;71.70
28432;BME280;15664;51.302;7.744;2022-12-18T01:18:06;84132.78;;;-146.98;71.76
28432;BME280;15664;51.302;7.744;2022-12-18T01:20:32;84157.22;;;-146.98;71.63
28432;BME280;15664;51.302;7.744;2022-12-18T01:22:57;84157.22;;;-146.98;71.55
28432;BME280;15664;51.302;7.744;2022-12-18T01:25:22;84134.81;;;-146.98;71.46
28432;BME280;15664;51.302;7.744;2022-12-18T01:27:49;84189.81;;;-146.98;71.37
28432;BME280;15664;51.302;7.744;2022-12-18T01:30:14;84155.19;;;-146.98;71.52
28432;BME280;15664;51.302;7.744;2022-12-18T01:32:40;84142.97;;;-146.98;71.68
28432;BME280;15664;51.302;7.744;2022-12-18T01:35:06;84126.66;;;-146.98;71.91
28432;BME280;15664;51.302;7.744;2022-12-18T01:37:32;84104.25;;;-146.98;72.15
28432;BME280;15664;51.302;7.744;2022-12-18T01:39:57;84128.69;;;-146.98;72.22
28432;BME280;15664;51.302;7.744;2022-12-18T01:42:22;84163.31;;;-146.98;72.39
28432;BME280;15664;51.302;7.744;2022-12-18T01:47:44;84197.97;;;-146.98;72.72
28432;BME280;15664;51.302;7.744;2022-12-18T01:50:37;84193.88;;;-146.98;72.81
28432;BME280;15664;51.302;7.744;2022-12-18T01:53:14;84228.50;;;-146.98;73.11
28432;BME280;15664;51.302;7.744;2022-12-18T01:55:43;84187.78;;;-146.98;73.40
28432;BME280;15664;51.302;7.744;2022-12-18T01:58:10;84169.44;;;-146.98;73.45
28432;BME280;15664;51.302;7.744;2022-12-18T02:00:35;84142.97;;;-146.98;73.59
28432;BME280;15664;51.302;7.744;2022-12-18T02:03:01;84210.19;;;-146.98;73.43
28432;BME280;15664;51.302;7.744;2022-12-18T02:05:46;84218.31;;;-146.98;73.46
28432;BME280;15664;51.302;7.744;2022-12-18T02:08:27;84236.66;;;-146.98;73.61
28432;BME280;15664;51.302;7.744;2022-12-18T02:13:43;84138.88;;;-146.98;73.34
28432;BME280;15664;51.302;7.744;2022-12-18T02:16:38;84163.31;;;-146.98;73.29
28432;BME280;15664;51.302;7.744;2022-12-18T02:19:29;84185.72;;;-146.98;73.20
28432;BME280;15664;51.302;7.744;2022-12-18T02:22:17;84163.31;;;-146.98;73.81
28432;BME280;15664;51.302;7.744;2022-12-18T02:25:01;84171.47;;;-146.98;73.82
28432;BME280;15664;51.302;7.744;2022-12-18T02:27:32;84124.63;;;-146.98;73.80
28432;BME280;15664;51.302;7.744;2022-12-18T02:30:00;84200.00;;;-146.98;73.84
28432;BME280;15664;51.302;7.744;2022-12-18T02:32:34;84185.72;;;-146.98;73.84
28432;BME280;15664;51.302;7.744;2022-12-18T02:35:04;84183.69;;;-146.98;74.05
28432;BME280;15664;51.302;7.744;2022-12-18T02:37:31;84167.41;;;-146.98;74.25
28432;BME280;15664;51.302;7.744;2022-12-18T02:40:02;84173.50;;;-146.98;74.16
28432;BME280;15664;51.302;7.744;2022-12-18T02:42:30;84183.69;;;-146.98;74.19
28432;BME280;15664;51.302;7.744;2022-12-18T02:44:55;84200.00;;;-146.98;73.79
28432;BME280;15664;51.302;7.744;2022-12-18T02:47:32;84149.06;;;-146.98;73.68
28432;BME280;15664;51.302;7.744;2022-12-18T02:50:13;84157.22;;;-146.98;73.66
28432;BME280;15664;51.302;7.744;2022-12-18T02:58:30;84165.38;;;-146.98;74.57
28432;BME280;15664;51.302;7.744;2022-12-18T03:01:22;84163.31;;;-146.98;74.66
28432;BME280;15664;51.302;7.744;2022-12-18T03:03:55;84175.56;;;-146.98;74.59
28432;BME280;15664;51.302;7.744;2022-12-18T03:06:30;84155.19;;;-146.98;74.46
28432;BME280;15664;51.302;7.744;2022-12-18T03:09:19;84165.38;;;-146.98;74.64
28432;BME280;15664;51.302;7.744;2022-12-18T03:11:53;84218.31;;;-146.98;74.87
28432;BME280;15664;51.302;7.744;2022-12-18T03:14:41;84208.13;;;-146.98;75.04
28432;BME280;15664;51.302;7.744;2022-12-18T03:17:13;84183.69;;;-146.98;75.10
28432;BME280;15664;51.302;7.744;2022-12-18T03:19:40;84122.59;;;-146.98;74.96
28432;BME280;15664;51.302;7.744;2022-12-18T03:22:07;84212.22;;;-146.98;74.78
28432;BME280;15664;51.302;7.744;2022-12-18T03:24:42;84195.91;;;-146.98;74.54
28432;BME280;15664;51.302;7.744;2022-12-18T03:27:11;84206.09;;;-146.98;74.26
28432;BME280;15664;51.302;7.744;2022-12-18T03:30:03;84255.00;;;-146.98;74.51
28432;BME280;15664;51.302;7.744;2022-12-18T03:32:58;84171.47;;;-146.98;74.92
28432;BME280;15664;51.302;7.744;2022-12-18T03:35:27;84191.84;;;-146.98;75.03
28432;BME280;15664;51.302;7.744;2022-12-18T03:37:55;84185.72;;;-146.98;74.92
28432;BME280;15664;51.302;7.744;2022-12-18T03:40:29;84175.56;;;-146.98;74.85
28432;BME280;15664;51.302;7.744;2022-12-18T03:43:04;84195.91;;;-146.98;74.67
28432;BME280;15664;51.302;7.744;2022-12-18T03:45:35;84122.59;;;-146.98;74.56
28432;BME280;15664;51.302;7.744;2022-12-18T03:48:19;84240.72;;;-146.98;74.54
28432;BME280;15664;51.302;7.744;2022-12-18T03:51:15;84191.84;;;-146.98;74.54
28432;BME280;15664;51.302;7.744;2022-12-18T03:53:54;84250.91;;;-146.98;74.59
28432;BME280;15664;51.302;7.744;2022-12-18T03:56:31;84228.50;;;-146.98;74.67
28432;BME280;15664;51.302;7.744;2022-12-18T03:58:58;84275.38;;;-146.98;74.57
28432;BME280;15664;51.302;7.744;2022-12-18T04:01:33;84216.28;;;-146.98;74.30
28432;BME280;15664;51.302;7.744;2022-12-18T04:04:01;84187.78;;;-146.98;74.25
28432;BME280;15664;51.302;7.744;2022-12-18T04:06:31;84200.00;;;-146.98;74.18
28432;BME280;15664;51.302;7.744;2022-12-18T04:08:57;84179.63;;;-146.98;74.47
28432;BME280;15664;51.302;7.744;2022-12-18T04:11:25;84187.78;;;-146.98;74.39
28432;BME280;15664;51.302;7.744;2022-12-18T04:13:55;84212.22;;;-146.98;74.59
28432;BME280;15664;51.302;7.744;2022-12-18T04:16:21;84200.00;;;-146.98;74.53
28432;BME280;15664;51.302;7.744;2022-12-18T04:18:51;84208.13;;;-146.98;74.73
28432;BME280;15664;51.302;7.744;2022-12-18T04:21:17;84191.84;;;-146.98;74.53
28432;BME280;15664;51.302;7.744;2022-12-18T04:23:43;84210.19;;;-146.98;74.75
28432;BME280;15664;51.302;7.744;2022-12-18T04:26:08;84204.06;;;-146.98;74.67
28432;BME280;15664;51.302;7.744;2022-12-18T04:29:00;84169.44;;;-146.98;74.70
28432;BME280;15664;51.302;7.744;2022-12-18T04:31:26;84179.63;;;-146.98;74.50
28432;BME280;15664;51.302;7.744;2022-12-18T04:33:51;84173.50;;;-146.98;74.30
28432;BME280;15664;51.302;7.744;2022-12-18T04:36:17;84204.06;;;-146.98;75.17
28432;BME280;15664;51.302;7.744;2022-12-18T04:38:44;84173.50;;;-146.98;75.16
28432;BME280;15664;51.302;7.744;2022-12-18T04:41:13;84220.38;;;-146.98;75.38
28432;BME280;15664;51.302;7.744;2022-12-18T04:43:39;84200.00;;;-146.98;76.23
28432;BME280;15664;51.302;7.744;2022-12-18T04:46:06;84216.28;;;-146.98;76.81
28432;BME280;15664;51.302;7.744;2022-12-18T04:48:32;84185.72;;;-146.98;76.94
28432;BME280;15664;51.302;7.744;2022-12-18T04:50:57;84197.97;;;-146.98;76.87
28432;BME280;15664;51.302;7.744;2022-12-18T04:53:23;84145.00;;;-146.98;76.79
28432;BME280;15664;51.302;7.744;2022-12-18T04:55:48;84132.78;;;-146.98;76.76
28432;BME280;15664;51.302;7.744;2022-12-18T04:58:14;84187.78;;;-146.98;76.51
28432;BME280;15664;51.302;7.744;2022-12-18T05:00:39;84222.41;;;-146.98;76.14
28432;BME280;15664;51.302;7.744;2022-12-18T05:03:04;84200.00;;;-146.98;76.26
28432;BME280;15664;51.302;7.744;2022-12-18T05:05:30;84169.44;;;-146.98;76.77
28432;BME280;15664;51.302;7.744;2022-12-18T05:07:55;84212.22;;;-146.98;77.25
28432;BME280;15664;51.302;7.744;2022-12-18T05:10:21;84204.06;;;-146.98;77.55
28432;BME280;15664;51.302;7.744;2022-12-18T05:12:46;84171.47;;;-146.98;77.31
28432;BME280;15664;51.302;7.744;2022-12-18T05:15:27;84191.84;;;-146.98;77.04
28432;BME280;15664;51.302;7.744;2022-12-18T05:17:52;84210.19;;;-146.98;76.69
28432;BME280;15664;51.302;7.744;2022-12-18T05:20:18;84226.47;;;-146.98;76.71
28432;BME280;15664;51.302;7.744;2022-12-18T05:22:43;84206.09;;;-146.98;76.78
28432;BME280;15664;51.302;7.744;2022-12-18T05:25:09;84226.47;;;-146.98;76.60
28432;BME280;15664;51.302;7.744;2022-12-18T05:27:34;84171.47;;;-146.98;76.58
28432;BME280;15664;51.302;7.744;2022-12-18T05:30:00;84224.44;;;-146.98;76.84
28432;BME280;15664;51.302;7.744;2022-12-18T05:32:25;84216.28;;;-146.98;76.95
28432;BME280;15664;51.302;7.744;2022-12-18T05:34:50;84252.97;;;-146.98;77.31
28432;BME280;15664;51.302;7.744;2022-12-18T05:37:15;84240.72;;;-146.98;78.19
28432;BME280;15664;51.302;7.744;2022-12-18T05:39:42;84269.25;;;-146.98;79.19
28432;BME280;15664;51.302;7.744;2022-12-18T05:42:08;84189.81;;;-146.98;79.65
28432;BME280;15664;51.302;7.744;2022-12-18T05:44:33;84163.31;;;-146.98;79.32
28432;BME280;15664;51.302;7.744;2022-12-18T05:46:59;84204.06;;;-146.98;78.61
28432;BME280;15664;51.302;7.744;2022-12-18T05:49:24;84200.00;;;-146.98;77.91
28432;BME280;15664;51.302;7.744;2022-12-18T05:51:49;84147.03;;;-146.98;77.21
28432;BME280;15664;51.302;7.744;2022-12-18T05:54:14;84183.69;;;-146.98;76.59
28432;BME280;15664;51.302;7.744;2022-12-18T05:56:40;84161.28;;;-146.98;75.99
28432;BME280;15664;51.302;7.744;2022-12-18T05:59:05;84157.22;;;-146.98;75.60
28432;BME280;15664;51.302;7.744;2022-12-18T06:01:30;84179.63;;;-146.98;75.47
28432;BME280;15664;51.302;7.744;2022-12-18T06:03:56;84153.16;;;-146.98;75.17
28432;BME280;15664;51.302;7.744;2022-12-18T06:06:26;84183.69;;;-146.98;75.12
28432;BME280;15664;51.302;7.744;2022-12-18T06:08:52;84147.03;;;-146.98;74.99
28432;BME280;15664;51.302;7.744;2022-12-18T06:11:20;84226.47;;;-146.98;74.76
28432;BME280;15664;51.302;7.744;2022-12-18T06:13:46;84120.56;;;-146.98;74.78
28432;BME280;15664;51.302;7.744;2022-12-18T06:16:14;84179.63;;;-146.98;74.73
28432;BME280;15664;51.302;7.744;2022-12-18T06:18:39;84181.66;;;-146.98;74.67
28432;BME280;15664;51.302;7.744;2022-12-18T06:21:05;84149.06;;;-146.98;74.48
28432;BME280;15664;51.302;7.744;2022-12-18T06:23:30;84177.59;;;-146.98;74.33
28432;BME280;15664;51.302;7.744;2022-12-18T06:25:55;84171.47;;;-146.98;74.01
28432;BME280;15664;51.302;7.744;2022-12-18T06:28:21;84171.47;;;-146.98;73.91
28432;BME280;15664;51.302;7.744;2022-12-18T06:30:47;84195.91;;;-146.98;73.83
28432;BME280;15664;51.302;7.744;2022-12-18T06:33:14;84167.41;;;-146.98;73.66
28432;BME280;15664;51.302;7.744;2022-12-18T06:35:40;84147.03;;;-146.98;73.56
28432;BME280;15664;51.302;7.744;2022-12-18T06:38:05;84161.28;;;-146.98;73.41
28432;BME280;15664;51.302;7.744;2022-12-18T06:40:30;84163.31;;;-146.98;73.11
28432;BME280;15664;51.302;7.744;2022-12-18T06:42:56;84155.19;;;-146.98;73.00
28432;BME280;15664;51.302;7.744;2022-12-18T06:45:21;84159.25;;;-146.98;72.72
28432;BME280;15664;51.302;7.744;2022-12-18T06:47:46;84151.09;;;-146.98;72.82
28432;BME280;15664;51.302;7.744;2022-12-18T06:50:12;84163.31;;;-146.98;72.75
28432;BME280;15664;51.302;7.744;2022-12-18T06:52:38;84167.41;;;-146.98;72.61
28432;BME280;15664;51.302;7.744;2022-12-18T06:55:06;84208.13;;;-146.98;72.33
28432;BME280;15664;51.302;7.744;2022-12-18T06:57:31;84175.56;;;-146.98;72.08
28432;BME280;15664;51.302;7.744;2022-12-18T06:59:56;84171.47;;;-146.98;71.91
28432;BME280;15664;51.302;7.744;2022-12-18T07:02:22;84124.63;;;-146.98;71.70
28432;BME280;15664;51.302;7.744;2022-12-18T07:04:47;84163.31;;;-146.98;71.46
28432;BME280;15664;51.302;7.744;2022-12-18T07:07:12;84163.31;;;-146.98;71.41
28432;BME280;15664;51.302;7.744;2022-12-18T07:09:37;84120.56;;;-146.98;71.15
28432;BME280;15664;51.302;7.744;2022-12-18T07:12:03;84179.63;;;-146.98;71.21
28432;BME280;15664;51.302;7.744;2022-12-18T07:14:30;84208.13;;;-146.98;71.21
28432;BME280;15664;51.302;7.744;2022-12-18T07:16:55;84116.47;;;-146.98;71.17
28432;BME280;15664;51.302;7.744;2022-12-18T07:19:20;84181.66;;;-146.98;71.07
28432;BME280;15664;51.302;7.744;2022-12-18T07:21:45;84167.41;;;-146.98;70.83
28432;BME280;15664;51.302;7.744;2022-12-18T07:24:11;84092.03;;;-146.98;70.80
28432;BME280;15664;51.302;7.744;2022-12-18T07:26:36;84157.22;;;-146.98;70.60
28432;BME280;15664;51.302;7.744;2022-12-18T07:29:01;84179.63;;;-146.98;70.62
28432;BME280;15664;51.302;7.744;2022-12-18T07:31:27;84157.22;;;-146.98;70.65
28432;BME280;15664;51.302;7.744;2022-12-18T07:33:53;84210.19;;;-146.98;70.64
28432;BME280;15664;51.302;7.744;2022-12-18T07:36:18;84142.97;;;-146.98;70.69
28432;BME280;15664;51.302;7.744;2022-12-18T07:38:47;84175.56;;;-146.98;70.58
28432;BME280;15664;51.302;7.744;2022-12-18T07:41:13;84132.78;;;-146.98;70.48
28432;BME280;15664;51.302;7.744;2022-12-18T07:43:40;84090.00;;;-146.98;70.44
28432;BME280;15664;51.302;7.744;2022-12-18T07:46:06;84163.31;;;-146.98;70.52
28432;BME280;15664;51.302;7.744;2022-12-18T07:48:32;84145.00;;;-146.98;70.45
28432;BME280;15664;51.302;7.744;2022-12-18T07:51:01;84153.16;;;-146.98;70.25
28432;BME280;15664;51.302;7.744;2022-12-18T07:53:27;84134.81;;;-146.98;70.03
28432;BME280;15664;51.302;7.744;2022-12-18T07:55:57;84145.00;;;-146.98;69.84
28432;BME280;15664;51.302;7.744;2022-12-18T07:58:23;84159.25;;;-146.98;69.58
28432;BME280;15664;51.302;7.744;2022-12-18T08:00:48;84118.50;;;-146.98;69.61
28432;BME280;15664;51.302;7.744;2022-12-18T08:03:14;84147.03;;;-146.98;69.35
28432;BME280;15664;51.302;7.744;2022-12-18T08:05:39;84126.66;;;-146.98;69.20
28432;BME280;15664;51.302;7.744;2022-12-18T08:08:04;84145.00;;;-146.98;69.07
28432;BME280;15664;51.302;7.744;2022-12-18T08:10:30;84147.03;;;-146.98;68.68
28432;BME280;15664;51.302;7.744;2022-12-18T08:12:55;84094.06;;;-146.98;68.41
28432;BME280;15664;51.302;7.744;2022-12-18T08:15:20;84122.59;;;-146.98;68.35
28432;BME280;15664;51.302;7.744;2022-12-18T08:17:45;84102.22;;;-146.98;67.75
28432;BME280;15664;51.302;7.744;2022-12-18T08:20:11;84142.97;;;-146.98;67.25
28432;BME280;15664;51.302;7.744;2022-12-18T08:22:36;84132.78;;;-146.98;66.75
28432;BME280;15664;51.302;7.744;2022-12-18T08:25:02;84092.03;;;-146.98;66.69
28432;BME280;15664;51.302;7.744;2022-12-18T08:27:28;84079.81;;;-146.98;65.36
28432;BME280;15664;51.302;7.744;2022-12-18T08:29:54;84081.84;;;-146.98;64.51
28432;BME280;15664;51.302;7.744;2022-12-18T08:32:20;84057.41;;;-146.98;64.24
28432;BME280;15664;51.302;7.744;2022-12-18T08:34:45;84102.22;;;-146.98;63.86
28432;BME280;15664;51.302;7.744;2022-12-18T08:37:10;84041.13;;;-146.98;63.94
28432;BME280;15664;51.302;7.744;2022-12-18T08:39:36;84053.34;;;-146.98;63.50
28432;BME280;15664;51.302;7.744;2022-12-18T08:42:01;84055.38;;;-146.98;62.67
28432;BME280;15664;51.302;7.744;2022-12-18T08:44:45;84094.06;;;-146.98;62.36
28432;BME280;15664;51.302;7.744;2022-12-18T08:47:10;84041.13;;;-146.98;61.93
28432;BME280;15664;51.302;7.744;2022-12-18T08:49:35;84043.16;;;-146.98;61.99
28432;BME280;15664;51.302;7.744;2022-12-18T08:52:01;84037.03;;;-146.98;61.35
28432;BME280;15664;51.302;7.744;2022-12-18T08:54:27;84106.28;;;-146.98;61.15
28432;BME280;15664;51.302;7.744;2022-12-18T08:56:53;84028.91;;;-146.98;60.42
28432;BME280;15664;51.302;7.744;2022-12-18T08:59:18;84055.38;;;-146.98;59.92
28432;BME280;15664;51.302;7.744;2022-12-18T09:01:45;84020.75;;;-146.98;60.06
28432;BME280;15664;51.302;7.744;2022-12-18T09:04:10;83992.22;;;-146.98;59.58
28432;BME280;15664;51.302;7.744;2022-12-18T09:06:36;84067.59;;;-146.98;59.38
28432;BME280;15664;51.302;7.744;2022-12-18T09:09:02;84010.56;;;-146.98;58.53
28432;BME280;15664;51.302;7.744;2022-12-18T09:11:28;84020.75;;;-146.98;57.32
28432;BME280;15664;51.302;7.744;2022-12-18T09:13:54;84022.78;;;-146.98;57.46
28432;BME280;15664;51.302;7.744;2022-12-18T09:16:21;84018.72;;;-146.98;57.46
28432;BME280;15664;51.302;7.744;2022-12-18T09:18:47;84006.50;;;-146.98;57.90
28432;BME280;15664;51.302;7.744;2022-12-18T09:21:15;83988.16;;;-146.98;57.07
28432;BME280;15664;51.302;7.744;2022-12-18T09:23:41;83988.16;;;-146.98;56.30
28432;BME280;15664;51.302;7.744;2022-12-18T09:26:06;84024.81;;;-146.98;56.47
28432;BME280;15664;51.302;7.744;2022-12-18T09:28:32;83943.34;;;-146.98;55.18
28432;BME280;15664;51.302;7.744;2022-12-18T09:30:57;83920.94;;;-146.98;54.79
28432;BME280;15664;51.302;7.744;2022-12-18T09:33:23;83874.09;;;-146.98;54.18
28432;BME280;15664;51.302;7.744;2022-12-18T09:35:48;83914.84;;;-146.98;53.32
28432;BME280;15664;51.302;7.744;2022-12-18T09:38:17;83902.63;;;-146.98;53.34
28432;BME280;15664;51.302;7.744;2022-12-18T09:40:57;83931.13;;;-146.98;52.76
28432;BME280;15664;51.302;7.744;2022-12-18T09:43:29;83865.94;;;-146.98;53.06
28432;BME280;15664;51.302;7.744;2022-12-18T09:46:03;83906.69;;;-146.98;52.96
28432;BME280;15664;51.302;7.744;2022-12-18T09:48:39;83918.91;;;-146.98;52.74
28432;BME280;15664;51.302;7.744;2022-12-18T09:51:33;83931.13;;;-146.98;53.06
28432;BME280;15664;51.302;7.744;2022-12-18T09:53:59;83908.72;;;-146.98;52.86
28432;BME280;15664;51.302;7.744;2022-12-18T09:56:28;83920.94;;;-146.98;52.13
28432;BME280;15664;51.302;7.744;2022-12-18T09:59:02;83908.72;;;-146.98;51.81
28432;BME280;15664;51.302;7.744;2022-12-18T10:01:29;83880.22;;;-146.98;52.05
28432;BME280;15664;51.302;7.744;2022-12-18T10:03:55;83874.09;;;-146.98;51.09
28432;BME280;15664;51.302;7.744;2022-12-18T10:06:35;83878.16;;;-146.98;50.42
28432;BME280;15664;51.302;7.744;2022-12-18T10:12:06;83825.22;;;-146.98;48.91
28432;BME280;15664;51.302;7.744;2022-12-18T10:14:50;83847.63;;;-146.98;49.17
28432;BME280;15664;51.302;7.744;2022-12-18T10:17:39;83847.63;;;-146.98;48.99
28432;BME280;15664;51.302;7.744;2022-12-18T10:20:41;83788.56;;;-146.98;48.91
28432;BME280;15664;51.302;7.744;2022-12-18T10:23:34;83835.41;;;-146.98;48.62
28432;BME280;15664;51.302;7.744;2022-12-18T10:26:07;83804.84;;;-146.98;47.42
28432;BME280;15664;51.302;7.744;2022-12-18T10:28:36;83784.47;;;-146.98;47.91
28432;BME280;15664;51.302;7.744;2022-12-18T10:31:05;83794.66;;;-146.98;47.51
28432;BME280;15664;51.302;7.744;2022-12-18T10:33:32;83815.03;;;-146.98;47.52
28432;BME280;15664;51.302;7.744;2022-12-18T10:35:58;83774.28;;;-146.98;47.54
28432;BME280;15664;51.302;7.744;2022-12-18T10:38:29;83786.50;;;-146.98;47.65
28432;BME280;15664;51.302;7.744;2022-12-18T10:41:05;83802.81;;;-146.98;47.27
28432;BME280;15664;51.302;7.744;2022-12-18T10:43:36;83741.72;;;-146.98;47.24
28432;BME280;15664;51.302;7.744;2022-12-18T10:48:39;83792.63;;;-146.98;47.86
28432;BME280;15664;51.302;7.744;2022-12-18T10:51:07;83788.56;;;-146.98;47.59
28432;BME280;15664;51.302;7.744;2022-12-18T10:53:34;83853.72;;;-146.98;47.87
28432;BME280;15664;51.302;7.744;2022-12-18T10:56:02;83800.78;;;-146.98;47.67
28432;BME280;15664;51.302;7.744;2022-12-18T10:58:37;83772.25;;;-146.98;46.94
28432;BME280;15664;51.302;7.744;2022-12-18T11:01:15;83800.78;;;-146.98;47.23
28432;BME280;15664;51.302;7.744;2022-12-18T11:04:00;83788.56;;;-146.98;47.26
28432;BME280;15664;51.302;7.744;2022-12-18T11:06:26;83768.19;;;-146.98;47.08
28432;BME280;15664;51.302;7.744;2022-12-18T11:09:04;83743.75;;;-146.98;47.16
28432;BME280;15664;51.302;7.744;2022-12-18T11:11:31;83715.22;;;-146.98;45.64
28432;BME280;15664;51.302;7.744;2022-12-18T11:14:06;83711.16;;;-146.98;45.87
28432;BME280;15664;51.302;7.744;2022-12-18T11:16:44;83733.56;;;-146.98;45.82
28432;BME280;15664;51.302;7.744;2022-12-18T11:19:35;83741.72;;;-146.98;44.90
28432;BME280;15664;51.302;7.744;2022-12-18T11:22:03;83747.81;;;-146.98;45.47
28432;BME280;15664;51.302;7.744;2022-12-18T11:24:52;83776.34;;;-146.98;45.40
28432;BME280;15664;51.302;7.744;2022-12-18T11:27:18;83733.56;;;-146.98;45.57
28432;BME280;15664;51.302;7.744;2022-12-18T11:29:44;83743.75;;;-146.98;45.59
28432;BME280;15664;51.302;7.744;2022-12-18T11:37:41;83725.41;;;-146.98;45.94
28432;BME280;15664;51.302;7.744;2022-12-18T11:40:17;83792.63;;;-146.98;45.72
28432;BME280;15664;51.302;7.744;2022-12-18T11:45:45;83739.66;;;-146.98;46.55
28432;BME280;15664;51.302;7.744;2022-12-18T11:48:21;83768.19;;;-146.98;46.16
28432;BME280;15664;51.302;7.744;2022-12-18T11:50:55;83735.59;;;-146.98;45.89
28432;BME280;15664;51.302;7.744;2022-12-18T11:53:21;83751.91;;;-146.98;45.99
28432;BME280;15664;51.302;7.744;2022-12-18T11:55:54;83735.59;;;-146.98;46.27
28432;BME280;15664;51.302;7.744;2022-12-18T12:03:50;83810.97;;;-146.98;45.72
28432;BME280;15664;51.302;7.744;2022-12-18T12:19:45;83743.75;;;-146.98;45.12
28432;BME280;15664;51.302;7.744;2022-12-18T12:22:49;83762.06;;;-146.98;45.23
28432;BME280;15664;51.302;7.744;2022-12-18T12:25:44;83747.81;;;-146.98;44.48
28432;BME280;15664;51.302;7.744;2022-12-18T12:33:43;83766.16;;;-146.98;45.21
28432;BME280;15664;51.302;7.744;2022-12-18T12:36:37;83743.75;;;-146.98;45.16
28432;BME280;15664;51.302;7.744;2022-12-18T12:39:08;83786.50;;;-146.98;45.12
28432;BME280;15664;51.302;7.744;2022-12-18T12:41:36;83725.41;;;-146.98;44.77
28432;BME280;15664;51.302;7.744;2022-12-18T12:44:25;83715.22;;;-146.98;45.01
28432;BME280;15664;51.302;7.744;2022-12-18T12:46:55;83723.38;;;-146.98;43.88
28432;BME280;15664;51.302;7.744;2022-12-18T12:49:26;83739.66;;;-146.98;44.15
28432;BME280;15664;51.302;7.744;2022-12-18T12:52:43;83796.69;;;-146.98;44.78
28432;BME280;15664;51.302;7.744;2022-12-18T12:54:49;83753.94;;;-146.98;43.92
28432;BME280;15664;51.302;7.744;2022-12-18T13:04:59;83762.06;;;-146.98;44.50
28432;BME280;15664;51.302;7.744;2022-12-18T13:07:36;83670.44;;;-146.98;44.36
28432;BME280;15664;51.302;7.744;2022-12-18T13:10:22;83766.16;;;-146.98;44.76
28432;BME280;15664;51.302;7.744;2022-12-18T13:13:08;83792.63;;;-146.98;45.07
28432;BME280;15664;51.302;7.744;2022-12-18T13:15:48;83694.88;;;-146.98;44.58
28432;BME280;15664;51.302;7.744;2022-12-18T13:18:24;83682.66;;;-146.98;45.33
28432;BME280;15664;51.302;7.744;2022-12-18T13:34:23;83729.50;;;-146.98;45.89
28432;BME280;15664;51.302;7.744;2022-12-18T13:36:51;83725.41;;;-146.98;46.62
28432;BME280;15664;51.302;7.744;2022-12-18T13:41:51;83774.28;;;-146.98;47.70
28432;BME280;15664;51.302;7.744;2022-12-18T13:44:38;83780.41;;;-146.98;47.46
28432;BME280;15664;51.302;7.744;2022-12-18T13:47:33;83721.34;;;-146.98;47.53
28432;BME280;15664;51.302;7.744;2022-12-18T13:50:22;83743.75;;;-146.98;46.97
28432;BME280;15664;51.302;7.744;2022-12-18T13:52:50;83755.97;;;-146.98;46.92
28432;BME280;15664;51.302;7.744;2022-12-18T13:55:18;83711.16;;;-146.98;47.15
28432;BME280;15664;51.302;7.744;2022-12-18T13:57:44;83741.72;;;-146.98;47.44
28432;BME280;15664;51.302;7.744;2022-12-18T14:02:48;83745.78;;;-146.98;47.32
28432;BME280;15664;51.302;7.744;2022-12-18T14:05:24;83758.00;;;-146.98;47.32
28432;BME280;15664;51.302;7.744;2022-12-18T14:07:50;83747.81;;;-146.98;47.42
28432;BME280;15664;51.302;7.744;2022-12-18T14:10:16;83764.13;;;-146.98;47.32
28432;BME280;15664;51.302;7.744;2022-12-18T14:12:47;83825.22;;;-146.98;47.12